sensor_id;sensor_type;location;lat;lon;timestamp;temperature;humidity
1347;DHT22;667;48.796;9.480;2022-08-24T05:26:07;17.70;71.00
1347;DHT22;667;48.796;9.480;2022-08-24T05:28:33;17.70;71.70
1347;DHT22;667;48.796;9.480;2022-08-24T05:33:36;17.80;72.10
1347;DHT22;667;48.796;9.480;2022-08-24T05:36:03;17.70;72.10
1347;DHT22;667;48.796;9.480;2022-08-24T05:38:29;17.80;72.30
1347;DHT22;667;48.796;9.480;2022-08-24T05:40:55;17.80;72.20
1347;DHT22;667;48.796;9.480;2022-08-24T05:43:21;17.90;72.30
1347;DHT22;667;48.796;9.480;2022-08-24T05:45:47;17.90;72.50
1347;DHT22;667;48.796;9.480;2022-08-24T05:48:12;17.90;72.40
1347;DHT22;667;48.796;9.480;2022-08-24T05:50:38;18.00;72.40
1347;DHT22;667;48.796;9.480;2022-08-24T05:53:04;18.00;72.40
1347;DHT22;667;48.796;9.480;2022-08-24T05:55:29;18.10;72.40
1347;DHT22;667;48.796;9.480;2022-08-24T05:57:55;18.10;72.40
1347;DHT22;667;48.796;9.480;2022-08-24T06:00:21;18.10;72.50
1347;DHT22;667;48.796;9.480;2022-08-24T06:02:47;18.20;72.50
1347;DHT22;667;48.796;9.480;2022-08-24T06:05:17;18.20;72.40
1347;DHT22;667;48.796;9.480;2022-08-24T06:07:42;18.30;72.50
1347;DHT22;667;48.796;9.480;2022-08-24T06:10:08;18.30;72.30
1347;DHT22;667;48.796;9.480;2022-08-24T06:12:35;18.40;72.00
1347;DHT22;667;48.796;9.480;2022-08-24T06:15:01;18.40;71.90
1347;DHT22;667;48.796;9.480;2022-08-24T06:17:26;18.50;71.60
1347;DHT22;667;48.796;9.480;2022-08-24T06:19:52;18.50;71.50
1347;DHT22;667;48.796;9.480;2022-08-24T06:22:17;18.60;71.30
1347;DHT22;667;48.796;9.480;2022-08-24T06:24:43;18.60;71.20
1347;DHT22;667;48.796;9.480;2022-08-24T06:27:27;18.70;71.20
1347;DHT22;667;48.796;9.480;2022-08-24T06:29:55;18.80;71.10
1347;DHT22;667;48.796;9.480;2022-08-24T06:32:21;18.80;70.90
1347;DHT22;667;48.796;9.480;2022-08-24T06:34:47;18.80;70.60
1347;DHT22;667;48.796;9.480;2022-08-24T06:37:13;18.90;70.70
1347;DHT22;667;48.796;9.480;2022-08-24T06:39:39;19.00;70.70
1347;DHT22;667;48.796;9.480;2022-08-24T06:42:05;19.10;70.50
1347;DHT22;667;48.796;9.480;2022-08-24T06:44:31;19.20;70.50
1347;DHT22;667;48.796;9.480;2022-08-24T06:46:57;19.20;70.40
1347;DHT22;667;48.796;9.480;2022-08-24T06:49:23;19.30;70.10
1347;DHT22;667;48.796;9.480;2022-08-24T06:51:49;19.30;69.70
1347;DHT22;667;48.796;9.480;2022-08-24T06:54:15;19.40;69.30
1347;DHT22;667;48.796;9.480;2022-08-24T06:56:40;19.40;69.20
1347;DHT22;667;48.796;9.480;2022-08-24T06:59:07;19.50;69.00
1347;DHT22;667;48.796;9.480;2022-08-24T07:01:32;19.60;69.00
1347;DHT22;667;48.796;9.480;2022-08-24T07:03:58;19.60;68.70
1347;DHT22;667;48.796;9.480;2022-08-24T07:06:24;19.70;68.70
1347;DHT22;667;48.796;9.480;2022-08-24T07:08:50;19.70;68.50
1347;DHT22;667;48.796;9.480;2022-08-24T07:11:17;19.80;68.30
1347;DHT22;667;48.796;9.480;2022-08-24T07:13:45;19.80;68.00
1347;DHT22;667;48.796;9.480;2022-08-24T07:16:12;19.90;68.00
1347;DHT22;667;48.796;9.480;2022-08-24T07:18:38;20.00;67.80
1347;DHT22;667;48.796;9.480;2022-08-24T07:21:04;20.00;67.70
1347;DHT22;667;48.796;9.480;2022-08-24T07:23:31;20.10;67.60
1347;DHT22;667;48.796;9.480;2022-08-24T07:25:56;20.20;67.60
1347;DHT22;667;48.796;9.480;2022-08-24T07:28:28;20.30;67.60
1347;DHT22;667;48.796;9.480;2022-08-24T07:30:54;20.30;67.40
1347;DHT22;667;48.796;9.480;2022-08-24T07:33:19;20.40;67.20
1347;DHT22;667;48.796;9.480;2022-08-24T07:35:48;20.40;66.90
1347;DHT22;667;48.796;9.480;2022-08-24T07:38:14;20.60;66.80
1347;DHT22;667;48.796;9.480;2022-08-24T07:40:39;20.60;66.40
1347;DHT22;667;48.796;9.480;2022-08-24T07:43:05;20.70;66.20
1347;DHT22;667;48.796;9.480;2022-08-24T07:45:30;20.80;66.10
1347;DHT22;667;48.796;9.480;2022-08-24T07:47:58;20.90;65.70
1347;DHT22;667;48.796;9.480;2022-08-24T07:50:23;20.90;65.40
1347;DHT22;667;48.796;9.480;2022-08-24T07:52:49;21.10;65.40
1347;DHT22;667;48.796;9.480;2022-08-24T07:55:15;21.10;65.20
1347;DHT22;667;48.796;9.480;2022-08-24T07:57:41;21.20;64.90
1347;DHT22;667;48.796;9.480;2022-08-24T08:00:12;21.30;64.30
1347;DHT22;667;48.796;9.480;2022-08-24T08:02:38;21.40;63.50
1347;DHT22;667;48.796;9.480;2022-08-24T08:05:08;21.50;62.90
1347;DHT22;667;48.796;9.480;2022-08-24T08:07:33;21.60;62.80
1347;DHT22;667;48.796;9.480;2022-08-24T08:10:00;21.70;62.40
1347;DHT22;667;48.796;9.480;2022-08-24T08:12:26;21.80;61.90
1347;DHT22;667;48.796;9.480;2022-08-24T08:14:51;21.80;61.40
1347;DHT22;667;48.796;9.480;2022-08-24T08:17:17;21.90;61.40
1347;DHT22;667;48.796;9.480;2022-08-24T08:19:43;22.00;61.40
1347;DHT22;667;48.796;9.480;2022-08-24T08:22:08;22.20;61.50
1347;DHT22;667;48.796;9.480;2022-08-24T08:24:53;22.20;61.10
1347;DHT22;667;48.796;9.480;2022-08-24T08:27:19;22.30;61.20
1347;DHT22;667;48.796;9.480;2022-08-24T08:29:46;22.40;61.10
1347;DHT22;667;48.796;9.480;2022-08-24T08:32:13;22.50;60.60
1347;DHT22;667;48.796;9.480;2022-08-24T08:34:43;22.60;60.00
1347;DHT22;667;48.796;9.480;2022-08-24T08:37:09;22.70;59.50
1347;DHT22;667;48.796;9.480;2022-08-24T08:39:35;22.80;59.30
1347;DHT22;667;48.796;9.480;2022-08-24T08:50:25;23.20;57.00
1347;DHT22;667;48.796;9.480;2022-08-24T08:56:48;23.50;56.40
1347;DHT22;667;48.796;9.480;2022-08-24T09:10:02;24.20;54.70
1347;DHT22;667;48.796;9.480;2022-08-24T09:12:45;24.30;54.10
1347;DHT22;667;48.796;9.480;2022-08-24T09:20:24;24.80;52.60
1347;DHT22;667;48.796;9.480;2022-08-24T09:23:08;25.00;52.40
1347;DHT22;667;48.796;9.480;2022-08-24T09:25:56;25.10;51.80
1347;DHT22;667;48.796;9.480;2022-08-24T09:28:53;25.30;52.10
1347;DHT22;667;48.796;9.480;2022-08-24T09:31:41;25.40;52.10
1347;DHT22;667;48.796;9.480;2022-08-24T09:37:47;25.70;51.90
1347;DHT22;667;48.796;9.480;2022-08-24T09:41:37;25.90;51.70
1347;DHT22;667;48.796;9.480;2022-08-24T10:14:22;27.50;48.80
1347;DHT22;667;48.796;9.480;2022-08-24T10:22:18;27.90;47.90
1347;DHT22;667;48.796;9.480;2022-08-24T10:27:56;28.10;45.80
1347;DHT22;667;48.796;9.480;2022-08-24T10:35:57;28.40;44.40
1347;DHT22;667;48.796;9.480;2022-08-24T10:55:25;28.90;41.30
1347;DHT22;667;48.796;9.480;2022-08-24T10:58:18;28.90;42.80
1347;DHT22;667;48.796;9.480;2022-08-24T11:00:48;29.10;42.60
1347;DHT22;667;48.796;9.480;2022-08-24T11:03:19;29.20;42.30
1347;DHT22;667;48.796;9.480;2022-08-24T11:05:52;29.30;42.60
1347;DHT22;667;48.796;9.480;2022-08-24T11:08:24;29.30;41.00
1347;DHT22;667;48.796;9.480;2022-08-24T11:11:12;29.40;40.70
1347;DHT22;667;48.796;9.480;2022-08-24T11:14:00;29.40;41.10
1347;DHT22;667;48.796;9.480;2022-08-24T11:16:39;29.50;41.40
1347;DHT22;667;48.796;9.480;2022-08-24T11:19:33;29.50;41.20
1347;DHT22;667;48.796;9.480;2022-08-24T11:22:02;29.50;41.90
1347;DHT22;667;48.796;9.480;2022-08-24T11:24:41;29.60;41.70
1347;DHT22;667;48.796;9.480;2022-08-24T11:27:17;29.60;41.70
1347;DHT22;667;48.796;9.480;2022-08-24T11:30:11;29.60;41.60
1347;DHT22;667;48.796;9.480;2022-08-24T11:37:40;29.80;42.20
1347;DHT22;667;48.796;9.480;2022-08-24T11:40:08;29.80;39.20
1347;DHT22;667;48.796;9.480;2022-08-24T11:43:02;29.90;37.50
1347;DHT22;667;48.796;9.480;2022-08-24T11:51:42;30.10;38.10
1347;DHT22;667;48.796;9.480;2022-08-24T12:11:21;30.20;36.80
1347;DHT22;667;48.796;9.480;2022-08-24T12:17:08;30.10;36.00
1347;DHT22;667;48.796;9.480;2022-08-24T12:19:45;30.10;36.60
1347;DHT22;667;48.796;9.480;2022-08-24T12:22:14;30.00;36.80
1347;DHT22;667;48.796;9.480;2022-08-24T12:24:50;30.00;37.40
1347;DHT22;667;48.796;9.480;2022-08-24T12:27:33;29.90;37.70
1347;DHT22;667;48.796;9.480;2022-08-24T12:30:07;30.00;37.10
1347;DHT22;667;48.796;9.480;2022-08-24T12:32:54;29.90;37.10
1347;DHT22;667;48.796;9.480;2022-08-24T12:38:26;29.90;36.90
1347;DHT22;667;48.796;9.480;2022-08-24T12:41:01;29.90;37.30
1347;DHT22;667;48.796;9.480;2022-08-24T12:43:45;29.90;37.60
1347;DHT22;667;48.796;9.480;2022-08-24T12:46:14;29.90;38.00
1347;DHT22;667;48.796;9.480;2022-08-24T12:53:57;30.00;39.60
1347;DHT22;667;48.796;9.480;2022-08-24T12:56:39;30.10;40.60
1347;DHT22;667;48.796;9.480;2022-08-24T13:04:40;30.10;40.50
1347;DHT22;667;48.796;9.480;2022-08-24T13:07:11;30.10;41.00
1347;DHT22;667;48.796;9.480;2022-08-24T13:44:18;29.60;42.60
1347;DHT22;667;48.796;9.480;2022-08-24T13:52:40;29.40;42.60
1347;DHT22;667;48.796;9.480;2022-08-24T13:55:34;29.40;42.80
1347;DHT22;667;48.796;9.480;2022-08-24T14:07:48;29.30;43.70
1347;DHT22;667;48.796;9.480;2022-08-24T14:15:27;29.20;44.90
1347;DHT22;667;48.796;9.480;2022-08-24T14:18:07;29.20;45.20
1347;DHT22;667;48.796;9.480;2022-08-24T14:20:53;29.20;45.10
1347;DHT22;667;48.796;9.480;2022-08-24T14:45:07;29.10;44.60
1347;DHT22;667;48.796;9.480;2022-08-24T14:50:49;29.10;45.00
1347;DHT22;667;48.796;9.480;2022-08-24T14:56:06;29.10;45.20
1347;DHT22;667;48.796;9.480;2022-08-24T14:58:59;29.10;45.50
1347;DHT22;667;48.796;9.480;2022-08-24T15:01:47;29.00;45.20
1347;DHT22;667;48.796;9.480;2022-08-24T15:07:44;29.00;45.30
1347;DHT22;667;48.796;9.480;2022-08-24T15:10:09;29.00;45.40
1347;DHT22;667;48.796;9.480;2022-08-24T15:12:53;28.90;45.50
1347;DHT22;667;48.796;9.480;2022-08-24T15:15:30;28.90;45.60
1347;DHT22;667;48.796;9.480;2022-08-24T15:20:57;28.90;46.20
1347;DHT22;667;48.796;9.480;2022-08-24T15:23:35;28.90;46.00
1347;DHT22;667;48.796;9.480;2022-08-24T15:26:12;28.90;46.10
1347;DHT22;667;48.796;9.480;2022-08-24T15:28:50;28.90;46.10
1347;DHT22;667;48.796;9.480;2022-08-24T15:31:26;28.90;46.00
1347;DHT22;667;48.796;9.480;2022-08-24T15:34:00;28.90;46.00
1347;DHT22;667;48.796;9.480;2022-08-24T15:36:28;28.90;46.40
1347;DHT22;667;48.796;9.480;2022-08-24T15:38:56;28.90;46.40
1347;DHT22;667;48.796;9.480;2022-08-24T15:41:26;28.90;46.50
1347;DHT22;667;48.796;9.480;2022-08-24T15:46:39;29.00;46.10
1347;DHT22;667;48.796;9.480;2022-08-24T15:49:12;29.00;46.00
1347;DHT22;667;48.796;9.480;2022-08-24T15:57:01;29.00;46.30
1347;DHT22;667;48.796;9.480;2022-08-24T15:59:48;29.00;46.40
1347;DHT22;667;48.796;9.480;2022-08-24T16:07:57;28.80;47.10
1347;DHT22;667;48.796;9.480;2022-08-24T16:15:45;28.70;46.80
1347;DHT22;667;48.796;9.480;2022-08-24T16:18:11;28.70;46.90
1347;DHT22;667;48.796;9.480;2022-08-24T16:20:38;28.70;46.70
1347;DHT22;667;48.796;9.480;2022-08-24T16:23:07;28.60;46.80
1347;DHT22;667;48.796;9.480;2022-08-24T16:25:35;28.60;47.00
1347;DHT22;667;48.796;9.480;2022-08-24T16:30:52;28.50;47.30
1347;DHT22;667;48.796;9.480;2022-08-24T16:36:07;28.40;47.30
1347;DHT22;667;48.796;9.480;2022-08-24T16:38:34;28.40;47.50
1347;DHT22;667;48.796;9.480;2022-08-24T16:41:03;28.40;47.60
1347;DHT22;667;48.796;9.480;2022-08-24T16:43:31;28.40;47.70
1347;DHT22;667;48.796;9.480;2022-08-24T16:45:59;28.40;47.50
1347;DHT22;667;48.796;9.480;2022-08-24T16:48:25;28.40;47.50
1347;DHT22;667;48.796;9.480;2022-08-24T16:50:52;28.40;47.20
1347;DHT22;667;48.796;9.480;2022-08-24T16:53:18;28.40;47.30
1347;DHT22;667;48.796;9.480;2022-08-24T16:55:43;28.40;47.40
1347;DHT22;667;48.796;9.480;2022-08-24T16:58:09;28.40;47.60
1347;DHT22;667;48.796;9.480;2022-08-24T17:00:35;28.40;47.70
1347;DHT22;667;48.796;9.480;2022-08-24T17:03:02;28.40;47.70
1347;DHT22;667;48.796;9.480;2022-08-24T17:05:27;28.40;47.90
1347;DHT22;667;48.796;9.480;2022-08-24T17:07:54;28.40;48.30
1347;DHT22;667;48.796;9.480;2022-08-24T17:10:19;28.40;48.50
1347;DHT22;667;48.796;9.480;2022-08-24T17:12:47;28.30;48.60
1347;DHT22;667;48.796;9.480;2022-08-24T17:15:13;28.30;48.50
1347;DHT22;667;48.796;9.480;2022-08-24T17:17:45;28.30;48.70
1347;DHT22;667;48.796;9.480;2022-08-24T17:20:17;28.20;48.70
1347;DHT22;667;48.796;9.480;2022-08-24T17:22:43;28.20;48.80
1347;DHT22;667;48.796;9.480;2022-08-24T17:25:08;28.20;49.00
1347;DHT22;667;48.796;9.480;2022-08-24T17:27:37;28.20;49.10
1347;DHT22;667;48.796;9.480;2022-08-24T17:30:09;28.10;49.10
1347;DHT22;667;48.796;9.480;2022-08-24T17:32:35;28.10;49.30
1347;DHT22;667;48.796;9.480;2022-08-24T17:35:01;28.10;49.70
1347;DHT22;667;48.796;9.480;2022-08-24T17:37:28;28.00;49.60
1347;DHT22;667;48.796;9.480;2022-08-24T17:39:56;28.00;49.80
1347;DHT22;667;48.796;9.480;2022-08-24T17:42:28;28.00;49.80
1347;DHT22;667;48.796;9.480;2022-08-24T17:44:56;27.90;49.90
1347;DHT22;667;48.796;9.480;2022-08-24T17:47:27;27.90;50.20
1347;DHT22;667;48.796;9.480;2022-08-24T17:49:52;27.80;50.50
1347;DHT22;667;48.796;9.480;2022-08-24T17:52:18;27.80;51.20
1347;DHT22;667;48.796;9.480;2022-08-24T17:54:43;27.70;51.80
1347;DHT22;667;48.796;9.480;2022-08-24T17:57:13;27.70;52.80
1347;DHT22;667;48.796;9.480;2022-08-24T17:59:39;27.60;53.80
1347;DHT22;667;48.796;9.480;2022-08-24T18:02:10;27.40;54.50
1347;DHT22;667;48.796;9.480;2022-08-24T18:04:37;27.30;55.00
1347;DHT22;667;48.796;9.480;2022-08-24T18:07:14;27.20;55.30
1347;DHT22;667;48.796;9.480;2022-08-24T18:09:45;27.00;56.20
1347;DHT22;667;48.796;9.480;2022-08-24T18:12:16;26.90;55.90
1347;DHT22;667;48.796;9.480;2022-08-24T18:14:42;26.80;56.10
1347;DHT22;667;48.796;9.480;2022-08-24T18:17:11;26.70;56.40
1347;DHT22;667;48.796;9.480;2022-08-24T18:19:39;26.60;56.90
1347;DHT22;667;48.796;9.480;2022-08-24T18:22:05;26.50;57.20
1347;DHT22;667;48.796;9.480;2022-08-24T18:24:32;26.30;57.40
1347;DHT22;667;48.796;9.480;2022-08-24T18:26:59;26.20;57.60
1347;DHT22;667;48.796;9.480;2022-08-24T18:29:27;26.20;58.00
1347;DHT22;667;48.796;9.480;2022-08-24T18:31:53;26.10;58.10
1347;DHT22;667;48.796;9.480;2022-08-24T18:34:20;25.90;58.10
1347;DHT22;667;48.796;9.480;2022-08-24T18:36:47;25.90;58.20
1347;DHT22;667;48.796;9.480;2022-08-24T18:39:13;25.80;58.40
1347;DHT22;667;48.796;9.480;2022-08-24T18:41:40;25.70;58.60
1347;DHT22;667;48.796;9.480;2022-08-24T18:44:07;25.60;58.70
1347;DHT22;667;48.796;9.480;2022-08-24T18:46:34;25.60;58.90
1347;DHT22;667;48.796;9.480;2022-08-24T18:49:00;25.50;58.90
1347;DHT22;667;48.796;9.480;2022-08-24T18:51:33;25.50;59.20
1347;DHT22;667;48.796;9.480;2022-08-24T18:54:06;25.40;59.50
1347;DHT22;667;48.796;9.480;2022-08-24T18:56:32;25.40;60.00
1347;DHT22;667;48.796;9.480;2022-08-24T18:58:58;25.40;60.40
1347;DHT22;667;48.796;9.480;2022-08-24T19:01:24;25.30;60.80
1347;DHT22;667;48.796;9.480;2022-08-24T19:03:51;25.30;61.00
1347;DHT22;667;48.796;9.480;2022-08-24T19:06:17;25.20;61.40
1347;DHT22;667;48.796;9.480;2022-08-24T19:08:42;25.20;61.20
1347;DHT22;667;48.796;9.480;2022-08-24T19:11:09;25.10;60.90
1347;DHT22;667;48.796;9.480;2022-08-24T19:13:36;25.00;61.30
1347;DHT22;667;48.796;9.480;2022-08-24T19:16:03;24.90;61.60
1347;DHT22;667;48.796;9.480;2022-08-24T19:18:28;24.90;61.70
1347;DHT22;667;48.796;9.480;2022-08-24T19:20:55;24.80;61.70
1347;DHT22;667;48.796;9.480;2022-08-24T19:23:27;24.70;61.70
1347;DHT22;667;48.796;9.480;2022-08-24T19:25:54;24.70;61.90
1347;DHT22;667;48.796;9.480;2022-08-24T19:28:21;24.60;61.80
1347;DHT22;667;48.796;9.480;2022-08-24T19:30:47;24.60;61.80
1347;DHT22;667;48.796;9.480;2022-08-24T19:33:20;24.50;61.90
1347;DHT22;667;48.796;9.480;2022-08-24T19:35:49;24.50;62.00
1347;DHT22;667;48.796;9.480;2022-08-24T19:38:15;24.50;62.20
1347;DHT22;667;48.796;9.480;2022-08-24T19:40:42;24.40;62.50
1347;DHT22;667;48.796;9.480;2022-08-24T19:43:08;24.40;62.90
1347;DHT22;667;48.796;9.480;2022-08-24T19:45:33;24.30;63.00
1347;DHT22;667;48.796;9.480;2022-08-24T19:48:18;24.30;63.10
1347;DHT22;667;48.796;9.480;2022-08-24T19:50:43;24.30;63.20
1347;DHT22;667;48.796;9.480;2022-08-24T19:53:09;24.30;63.20
1347;DHT22;667;48.796;9.480;2022-08-24T19:55:35;24.20;63.40
1347;DHT22;667;48.796;9.480;2022-08-24T20:00:42;24.10;64.00
1347;DHT22;667;48.796;9.480;2022-08-24T20:03:11;24.10;64.30
1347;DHT22;667;48.796;9.480;2022-08-24T20:05:37;24.00;64.50
1347;DHT22;667;48.796;9.480;2022-08-24T20:08:03;24.00;64.70
1347;DHT22;667;48.796;9.480;2022-08-24T20:10:31;23.90;64.80
1347;DHT22;667;48.796;9.480;2022-08-24T20:12:57;23.90;65.10
1347;DHT22;667;48.796;9.480;2022-08-24T20:15:23;23.80;65.30
1347;DHT22;667;48.796;9.480;2022-08-24T20:17:50;23.80;65.60
1347;DHT22;667;48.796;9.480;2022-08-24T20:20:17;23.70;65.80
1347;DHT22;667;48.796;9.480;2022-08-24T20:22:44;23.70;66.20
1347;DHT22;667;48.796;9.480;2022-08-24T20:25:10;23.70;66.30
1347;DHT22;667;48.796;9.480;2022-08-24T20:27:36;23.60;66.40
1347;DHT22;667;48.796;9.480;2022-08-24T20:30:03;23.60;66.60
1347;DHT22;667;48.796;9.480;2022-08-24T20:32:29;23.60;66.80
1347;DHT22;667;48.796;9.480;2022-08-24T20:34:56;23.50;66.90
1347;DHT22;667;48.796;9.480;2022-08-24T20:37:24;23.40;66.90
1347;DHT22;667;48.796;9.480;2022-08-24T20:39:52;23.40;67.00
1347;DHT22;667;48.796;9.480;2022-08-24T20:42:20;23.40;67.20
1347;DHT22;667;48.796;9.480;2022-08-24T20:44:46;23.30;67.10
1347;DHT22;667;48.796;9.480;2022-08-24T20:47:12;23.30;67.10
1347;DHT22;667;48.796;9.480;2022-08-24T20:49:38;23.30;67.30
1347;DHT22;667;48.796;9.480;2022-08-24T20:52:04;23.20;67.40
1347;DHT22;667;48.796;9.480;2022-08-24T20:54:32;23.20;67.50
1347;DHT22;667;48.796;9.480;2022-08-24T20:56:57;23.10;67.50
1347;DHT22;667;48.796;9.480;2022-08-24T20:59:23;23.10;67.70
1347;DHT22;667;48.796;9.480;2022-08-24T21:01:48;23.00;67.80
1347;DHT22;667;48.796;9.480;2022-08-24T21:04:14;23.00;67.90
1347;DHT22;667;48.796;9.480;2022-08-24T21:06:41;23.00;67.90
1347;DHT22;667;48.796;9.480;2022-08-24T21:09:08;23.00;68.10
1347;DHT22;667;48.796;9.480;2022-08-24T21:11:34;23.00;68.10
1347;DHT22;667;48.796;9.480;2022-08-24T21:14:00;23.00;68.30
1347;DHT22;667;48.796;9.480;2022-08-24T21:16:26;22.90;68.20
1347;DHT22;667;48.796;9.480;2022-08-24T21:18:52;22.90;68.20
1347;DHT22;667;48.796;9.480;2022-08-24T21:21:18;22.90;68.40
1347;DHT22;667;48.796;9.480;2022-08-24T21:23:44;22.90;68.50
1347;DHT22;667;48.796;9.480;2022-08-24T21:26:12;22.80;68.60
1347;DHT22;667;48.796;9.480;2022-08-24T21:28:40;22.80;68.60
1347;DHT22;667;48.796;9.480;2022-08-24T21:31:06;22.80;68.70
1347;DHT22;667;48.796;9.480;2022-08-24T21:33:33;22.80;68.80
1347;DHT22;667;48.796;9.480;2022-08-24T21:36:17;22.70;68.80
1347;DHT22;667;48.796;9.480;2022-08-24T21:38:44;22.70;68.90
1347;DHT22;667;48.796;9.480;2022-08-24T21:41:10;22.70;69.20
1347;DHT22;667;48.796;9.480;2022-08-24T21:43:35;22.60;69.20
1347;DHT22;667;48.796;9.480;2022-08-24T21:46:01;22.60;69.30
1347;DHT22;667;48.796;9.480;2022-08-24T21:48:27;22.60;69.50
1347;DHT22;667;48.796;9.480;2022-08-24T21:50:52;22.60;69.60
1347;DHT22;667;48.796;9.480;2022-08-24T21:53:18;22.50;69.60
1347;DHT22;667;48.796;9.480;2022-08-24T21:55:44;22.50;69.70
1347;DHT22;667;48.796;9.480;2022-08-24T21:58:11;22.40;69.90
1347;DHT22;667;48.796;9.480;2022-08-24T22:00:37;22.40;70.00
1347;DHT22;667;48.796;9.480;2022-08-24T22:03:03;22.40;70.00
1347;DHT22;667;48.796;9.480;2022-08-24T22:05:30;22.30;70.00
1347;DHT22;667;48.796;9.480;2022-08-24T22:07:56;22.30;70.20
1347;DHT22;667;48.796;9.480;2022-08-24T22:10:23;22.30;70.20
1347;DHT22;667;48.796;9.480;2022-08-24T22:12:50;22.20;70.20
1347;DHT22;667;48.796;9.480;2022-08-24T22:15:15;22.20;70.40
1347;DHT22;667;48.796;9.480;2022-08-24T22:17:42;22.20;70.60
1347;DHT22;667;48.796;9.480;2022-08-24T22:20:10;22.10;70.60
1347;DHT22;667;48.796;9.480;2022-08-24T22:22:37;22.10;70.60
1347;DHT22;667;48.796;9.480;2022-08-24T22:25:05;22.10;70.90
1347;DHT22;667;48.796;9.480;2022-08-24T22:27:31;22.00;70.90
1347;DHT22;667;48.796;9.480;2022-08-24T22:29:57;22.00;71.10
1347;DHT22;667;48.796;9.480;2022-08-24T22:32:23;21.90;71.10
1347;DHT22;667;48.796;9.480;2022-08-24T22:34:49;21.90;71.20
1347;DHT22;667;48.796;9.480;2022-08-24T22:37:15;21.90;71.20
1347;DHT22;667;48.796;9.480;2022-08-24T22:39:41;21.90;71.20
1347;DHT22;667;48.796;9.480;2022-08-24T22:42:07;21.90;71.20
1347;DHT22;667;48.796;9.480;2022-08-24T22:44:33;21.90;71.30
1347;DHT22;667;48.796;9.480;2022-08-24T22:47:01;21.90;71.40
1347;DHT22;667;48.796;9.480;2022-08-24T22:49:30;21.80;71.40
1347;DHT22;667;48.796;9.480;2022-08-24T22:51:57;21.80;71.40
1347;DHT22;667;48.796;9.480;2022-08-24T22:54:23;21.80;71.60
1347;DHT22;667;48.796;9.480;2022-08-24T22:56:52;21.70;71.60
1347;DHT22;667;48.796;9.480;2022-08-24T22:59:21;21.70;71.80
1347;DHT22;667;48.796;9.480;2022-08-24T23:01:53;21.70;71.90
1347;DHT22;667;48.796;9.480;2022-08-24T23:04:23;21.70;72.00
1347;DHT22;667;48.796;9.480;2022-08-24T23:06:50;21.60;71.80
1347;DHT22;667;48.796;9.480;2022-08-24T23:09:16;21.60;72.00
1347;DHT22;667;48.796;9.480;2022-08-24T23:11:42;21.60;72.20
1347;DHT22;667;48.796;9.480;2022-08-24T23:14:09;21.50;72.20
1347;DHT22;667;48.796;9.480;2022-08-24T23:16:38;21.50;72.30
1347;DHT22;667;48.796;9.480;2022-08-24T23:19:05;21.50;72.40
1347;DHT22;667;48.796;9.480;2022-08-24T23:21:50;21.40;72.40
1347;DHT22;667;48.796;9.480;2022-08-24T23:24:15;21.40;72.50
1347;DHT22;667;48.796;9.480;2022-08-24T23:26:42;21.40;72.70
1347;DHT22;667;48.796;9.480;2022-08-24T23:29:09;21.30;72.90
1347;DHT22;667;48.796;9.480;2022-08-24T23:31:36;21.30;72.90
1347;DHT22;667;48.796;9.480;2022-08-24T23:34:02;21.30;72.90
1347;DHT22;667;48.796;9.480;2022-08-24T23:36:28;21.30;72.90
1347;DHT22;667;48.796;9.480;2022-08-24T23:38:56;21.30;72.90
1347;DHT22;667;48.796;9.480;2022-08-24T23:41:27;21.30;73.10
1347;DHT22;667;48.796;9.480;2022-08-24T23:43:54;21.20;73.00
1347;DHT22;667;48.796;9.480;2022-08-24T23:46:21;21.30;73.20
1347;DHT22;667;48.796;9.480;2022-08-24T23:48:47;21.20;73.10
1347;DHT22;667;48.796;9.480;2022-08-24T23:51:15;21.20;73.20
1347;DHT22;667;48.796;9.480;2022-08-24T23:53:42;21.20;73.40
1347;DHT22;667;48.796;9.480;2022-08-24T23:56:40;21.20;73.40
1347;DHT22;667;48.796;9.480;2022-08-24T23:59:09;21.10;73.50
